M/y A.b.normal — 2DLI6 — position and weather

sailwx.info

Track history (hours):
 
Tides and Currents Weather Stations Pressure Air Temp Water Temp Dewpoint Dewpoint Depression Visibility Wind Speed Wind Dir Waves Ship Positions

M/y A.b.normal

Last reported at 2014-Jul-28 16:30 UTC. Time now 2014-Jul-29 21:04 UTC.
Position N 38°54' E 001°27'.

Length 28 m; draft 2.6 m.

Type: Pleasure craft. MMSI: 235079977.

Date/timePositionNaut miles runAvg speedWind from/ knotsBaromVisibWave heightAir tempDewpointWater temp
2014-Jul-28 16:30N 38°54' E 001°27'  
2014-Jul-24 22:29N 38°52' E 001°19'1 0.1
2014-Jul-24 16:27N 38°51' E 001°19'7 8.0
2014-Jul-24 15:33N 38°46' E 001°26'0 0.0
2014-Jul-24 14:33N 38°46' E 001°26'0 0.0
2014-Jul-24 13:33N 38°46' E 001°26'0 0.0
2014-Jul-24 12:32N 38°46' E 001°26'0 0.0
2014-Jul-24 11:33N 38°46' E 001°26'0 0.0
2014-Jul-24 10:33N 38°46' E 001°26'0 0.0
2014-Jul-24 09:29N 38°46' E 001°26'1 0.1
2014-Jul-24 05:26N 38°45' E 001°26'0 0.0
2014-Jul-24 04:33N 38°45' E 001°26'0 0.0
2014-Jul-24 03:26N 38°45' E 001°26'0 0.0
2014-Jul-24 02:32N 38°45' E 001°26'0 0.0
2014-Jul-24 01:27N 38°45' E 001°26'0 0.0
2014-Jul-24 00:33N 38°45' E 001°26'2 1.9
2014-Jul-23 23:32N 38°47' E 001°24'8 8.2
2014-Jul-23 22:33N 38°52' E 001°32'9 8.6
2014-Jul-23 21:33N 38°57' E 001°41'9 9.1
2014-Jul-23 20:33N 39°03' E 001°51'9 9.1
2014-Jul-23 19:33N 39°08' E 001°60'9 9.1
2014-Jul-23 18:33N 39°14' E 002°09'9 9.2
2014-Jul-23 17:33N 39°19' E 002°18'9 9.1
2014-Jul-23 16:33N 39°25' E 002°28'5 4.5
2014-Jul-23 15:33N 39°28' E 002°31'0 0.0
2014-Jul-23 14:33N 39°28' E 002°31'0 0.0
2014-Jul-23 13:33N 39°28' E 002°31'0 0.0
2014-Jul-23 12:33N 39°28' E 002°31'0 0.0
2014-Jul-23 11:33N 39°28' E 002°31'0 0.0
2014-Jul-23 10:33N 39°28' E 002°31'6 6.1
2014-Jul-23 09:33N 39°32' E 002°38'2 1.8
2014-Jul-23 08:33N 39°34' E 002°38'0 0.0
2014-Jul-23 07:33N 39°34' E 002°38'0 0.0
2014-Jul-23 06:33N 39°34' E 002°38'0 0.0
2014-Jul-23 05:33N 39°34' E 002°38'0 0.0
2014-Jul-23 04:33N 39°34' E 002°38'0 0.0
2014-Jul-23 03:33N 39°34' E 002°38'0 0.0
2014-Jul-23 02:33N 39°34' E 002°38'0 0.0
2014-Jul-23 01:33N 39°34' E 002°38'0 0.0
2014-Jul-23 00:33N 39°34' E 002°38'0 0.0
2014-Jul-22 23:33N 39°34' E 002°38'0 0.0
2014-Jul-22 22:33N 39°34' E 002°38'0 0.0
2014-Jul-22 21:33N 39°34' E 002°38'0 0.0
2014-Jul-22 20:33N 39°34' E 002°38'0 0.0
2014-Jul-22 19:33N 39°34' E 002°38'0 0.0
2014-Jul-22 18:33N 39°34' E 002°38'0 0.0
2014-Jul-22 17:33N 39°34' E 002°38'0 0.0
2014-Jul-22 16:33N 39°34' E 002°38'0 0.0
2014-Jul-22 15:33N 39°34' E 002°38'0 0.0
2014-Jul-22 14:33N 39°34' E 002°38'0 0.0
2014-Jul-22 13:33N 39°34' E 002°38'0 0.0
2014-Jul-22 12:33N 39°34' E 002°38'0 0.0
2014-Jul-22 11:33N 39°34' E 002°38'0 0.0
2014-Jul-22 10:33N 39°34' E 002°38'0 0.0
2014-Jul-22 09:33N 39°34' E 002°38'0 0.0
2014-Jul-22 08:33N 39°34' E 002°38'0 0.0
2014-Jul-22 07:33N 39°34' E 002°38'0 0.0
2014-Jul-22 06:33N 39°34' E 002°38'0 0.0
2014-Jul-22 05:33N 39°34' E 002°38'0 0.0
2014-Jul-22 04:33N 39°34' E 002°38'0 0.0
2014-Jul-22 03:33N 39°34' E 002°38'0 0.0
2014-Jul-22 02:33N 39°34' E 002°38'0 0.0
2014-Jul-22 01:33N 39°34' E 002°38'0 0.0
2014-Jul-22 00:33N 39°34' E 002°38'0 0.0
2014-Jul-21 23:33N 39°34' E 002°38'0 0.0
2014-Jul-21 22:33N 39°34' E 002°38'0 0.0
2014-Jul-21 21:33N 39°34' E 002°38'0 0.0
2014-Jul-21 20:33N 39°34' E 002°38'0 0.0
2014-Jul-21 20:18N 39°34' E 002°38'1 0.8
2014-Jul-21 19:33N 39°33' E 002°38'8 8.0
2014-Jul-21 18:33N 39°26' E 002°43'9 8.9
2014-Jul-21 17:33N 39°20' E 002°51'9 8.6
2014-Jul-21 16:33N 39°16' E 003°01'8 8.2
2014-Jul-21 15:33N 39°19' E 003°11'7 2.4
2014-Jul-21 12:26N 39°25' E 003°17'23 7.4
2014-Jul-21 09:22N 39°47' E 003°21'8 9.4
2014-Jul-21 08:33N 39°49' E 003°12'3 0.4
2014-Jul-21 01:09N 39°50' E 003°08'0 0.0
2014-Jul-20 23:14N 39°50' E 003°08'0 0.0
2014-Jul-20 16:31N 39°50' E 003°08'6 0.6
2014-Jul-20 07:17N 39°56' E 003°06'0 0.0
2014-Jul-20 06:30N 39°56' E 003°06'0 0.0
2014-Jul-20 01:33N 39°56' E 003°06'0 0.0
2014-Jul-20 00:20N 39°56' E 003°06'0 0.0
2014-Jul-19 21:15N 39°56' E 003°06'0 0.0
2014-Jul-19 18:06N 39°56' E 003°06'15 1.6
2014-Jul-19 08:33N 39°52' E 002°47'6 5.6
2014-Jul-19 07:33N 39°48' E 002°42'0 0.0
2014-Jul-19 06:33N 39°48' E 002°42'0 0.0
2014-Jul-19 05:33N 39°48' E 002°42'0 0.0
2014-Jul-19 04:33N 39°48' E 002°42'0 0.0
2014-Jul-19 03:33N 39°48' E 002°42'0 0.0
2014-Jul-19 02:33N 39°48' E 002°42'0 0.0
2014-Jul-19 01:33N 39°48' E 002°42'0 0.0
2014-Jul-19 00:34N 39°48' E 002°42'0 0.0
2014-Jul-18 23:33N 39°48' E 002°42'0 0.0
2014-Jul-18 22:33N 39°48' E 002°42'0 0.0
2014-Jul-18 21:34N 39°48' E 002°42'0 0.0
2014-Jul-18 20:33N 39°48' E 002°42'0 0.0
2014-Jul-18 19:34N 39°48' E 002°42'0 0.0
2014-Jul-18 18:34N 39°48' E 002°42'0 0.3
2014-Jul-18 17:33N 39°48' E 002°41'  
Track history (hours):
 
Tides and Currents Weather Stations Pressure Air Temp Water Temp Dewpoint Dewpoint Depression Visibility Wind Speed Wind Dir Waves Ship Positions

M/y A.b.normal

Last reported at 2014-Jul-28 16:30 UTC. Time now 2014-Jul-29 21:04 UTC.
Position N 38°54' E 001°27'.

Length 28 m; draft 2.6 m.

Type: Pleasure craft. MMSI: 235079977.

Date/timePositionNaut miles runAvg speedWind from/ knotsBaromVisibWave heightAir tempDewpointWater temp
2014-Jul-28 16:30N 38°54' E 001°27'  
2014-Jul-24 22:29N 38°52' E 001°19'1 0.1
2014-Jul-24 16:27N 38°51' E 001°19'7 8.0
2014-Jul-24 15:33N 38°46' E 001°26'0 0.0
2014-Jul-24 14:33N 38°46' E 001°26'0 0.0
2014-Jul-24 13:33N 38°46' E 001°26'0 0.0
2014-Jul-24 12:32N 38°46' E 001°26'0 0.0
2014-Jul-24 11:33N 38°46' E 001°26'0 0.0
2014-Jul-24 10:33N 38°46' E 001°26'0 0.0
2014-Jul-24 09:29N 38°46' E 001°26'1 0.1
2014-Jul-24 05:26N 38°45' E 001°26'0 0.0
2014-Jul-24 04:33N 38°45' E 001°26'0 0.0
2014-Jul-24 03:26N 38°45' E 001°26'0 0.0
2014-Jul-24 02:32N 38°45' E 001°26'0 0.0
2014-Jul-24 01:27N 38°45' E 001°26'0 0.0
2014-Jul-24 00:33N 38°45' E 001°26'2 1.9
2014-Jul-23 23:32N 38°47' E 001°24'8 8.2
2014-Jul-23 22:33N 38°52' E 001°32'9 8.6
2014-Jul-23 21:33N 38°57' E 001°41'9 9.1
2014-Jul-23 20:33N 39°03' E 001°51'9 9.1
2014-Jul-23 19:33N 39°08' E 001°60'9 9.1
2014-Jul-23 18:33N 39°14' E 002°09'9 9.2
2014-Jul-23 17:33N 39°19' E 002°18'9 9.1
2014-Jul-23 16:33N 39°25' E 002°28'5 4.5
2014-Jul-23 15:33N 39°28' E 002°31'0 0.0
2014-Jul-23 14:33N 39°28' E 002°31'0 0.0
2014-Jul-23 13:33N 39°28' E 002°31'0 0.0
2014-Jul-23 12:33N 39°28' E 002°31'0 0.0
2014-Jul-23 11:33N 39°28' E 002°31'0 0.0
2014-Jul-23 10:33N 39°28' E 002°31'6 6.1
2014-Jul-23 09:33N 39°32' E 002°38'2 1.8
2014-Jul-23 08:33N 39°34' E 002°38'0 0.0
2014-Jul-23 07:33N 39°34' E 002°38'0 0.0
2014-Jul-23 06:33N 39°34' E 002°38'0 0.0
2014-Jul-23 05:33N 39°34' E 002°38'0 0.0
2014-Jul-23 04:33N 39°34' E 002°38'0 0.0
2014-Jul-23 03:33N 39°34' E 002°38'0 0.0
2014-Jul-23 02:33N 39°34' E 002°38'0 0.0
2014-Jul-23 01:33N 39°34' E 002°38'0 0.0
2014-Jul-23 00:33N 39°34' E 002°38'0 0.0
2014-Jul-22 23:33N 39°34' E 002°38'0 0.0
2014-Jul-22 22:33N 39°34' E 002°38'0 0.0
2014-Jul-22 21:33N 39°34' E 002°38'0 0.0
2014-Jul-22 20:33N 39°34' E 002°38'0 0.0
2014-Jul-22 19:33N 39°34' E 002°38'0 0.0
2014-Jul-22 18:33N 39°34' E 002°38'0 0.0
2014-Jul-22 17:33N 39°34' E 002°38'0 0.0
2014-Jul-22 16:33N 39°34' E 002°38'0 0.0
2014-Jul-22 15:33N 39°34' E 002°38'0 0.0
2014-Jul-22 14:33N 39°34' E 002°38'0 0.0
2014-Jul-22 13:33N 39°34' E 002°38'0 0.0
2014-Jul-22 12:33N 39°34' E 002°38'0 0.0
2014-Jul-22 11:33N 39°34' E 002°38'0 0.0
2014-Jul-22 10:33N 39°34' E 002°38'0 0.0
2014-Jul-22 09:33N 39°34' E 002°38'0 0.0
2014-Jul-22 08:33N 39°34' E 002°38'0 0.0
2014-Jul-22 07:33N 39°34' E 002°38'0 0.0
2014-Jul-22 06:33N 39°34' E 002°38'0 0.0
2014-Jul-22 05:33N 39°34' E 002°38'0 0.0
2014-Jul-22 04:33N 39°34' E 002°38'0 0.0
2014-Jul-22 03:33N 39°34' E 002°38'0 0.0
2014-Jul-22 02:33N 39°34' E 002°38'0 0.0
2014-Jul-22 01:33N 39°34' E 002°38'0 0.0
2014-Jul-22 00:33N 39°34' E 002°38'0 0.0
2014-Jul-21 23:33N 39°34' E 002°38'0 0.0
2014-Jul-21 22:33N 39°34' E 002°38'0 0.0
2014-Jul-21 21:33N 39°34' E 002°38'0 0.0
2014-Jul-21 20:33N 39°34' E 002°38'0 0.0
2014-Jul-21 20:18N 39°34' E 002°38'1 0.8
2014-Jul-21 19:33N 39°33' E 002°38'8 8.0
2014-Jul-21 18:33N 39°26' E 002°43'9 8.9
2014-Jul-21 17:33N 39°20' E 002°51'9 8.6
2014-Jul-21 16:33N 39°16' E 003°01'8 8.2
2014-Jul-21 15:33N 39°19' E 003°11'7 2.4
2014-Jul-21 12:26N 39°25' E 003°17'23 7.4
2014-Jul-21 09:22N 39°47' E 003°21'8 9.4
2014-Jul-21 08:33N 39°49' E 003°12'3 0.4
2014-Jul-21 01:09N 39°50' E 003°08'0 0.0
2014-Jul-20 23:14N 39°50' E 003°08'0 0.0
2014-Jul-20 16:31N 39°50' E 003°08'6 0.6
2014-Jul-20 07:17N 39°56' E 003°06'0 0.0
2014-Jul-20 06:30N 39°56' E 003°06'0 0.0
2014-Jul-20 01:33N 39°56' E 003°06'0 0.0
2014-Jul-20 00:20N 39°56' E 003°06'0 0.0
2014-Jul-19 21:15N 39°56' E 003°06'0 0.0
2014-Jul-19 18:06N 39°56' E 003°06'15 1.6
2014-Jul-19 08:33N 39°52' E 002°47'6 5.6
2014-Jul-19 07:33N 39°48' E 002°42'0 0.0
2014-Jul-19 06:33N 39°48' E 002°42'0 0.0
2014-Jul-19 05:33N 39°48' E 002°42'0 0.0
2014-Jul-19 04:33N 39°48' E 002°42'0 0.0
2014-Jul-19 03:33N 39°48' E 002°42'0 0.0
2014-Jul-19 02:33N 39°48' E 002°42'0 0.0
2014-Jul-19 01:33N 39°48' E 002°42'0 0.0
2014-Jul-19 00:34N 39°48' E 002°42'0 0.0
2014-Jul-18 23:33N 39°48' E 002°42'0 0.0
2014-Jul-18 22:33N 39°48' E 002°42'0 0.0
2014-Jul-18 21:34N 39°48' E 002°42'0 0.0
2014-Jul-18 20:33N 39°48' E 002°42'0 0.0
2014-Jul-18 19:34N 39°48' E 002°42'0 0.0
2014-Jul-18 18:34N 39°48' E 002°42'0 0.3
2014-Jul-18 17:33N 39°48' E 002°41'  

Dump ship's entire track history